createdAt,value
2018-04-18T00:03:16.238Z,8.50
2018-04-18T00:08:17.534Z,8.67
2018-04-18T00:13:18.817Z,8.77
2018-04-18T00:18:20.876Z,9.63
2018-04-18T00:23:22.177Z,9.27
2018-04-18T00:28:23.474Z,9.60
2018-04-18T00:33:25.653Z,9.93
2018-04-18T00:38:27.007Z,9.77
2018-04-18T00:43:28.336Z,8.47
2018-04-18T00:48:29.666Z,8.73
2018-04-18T00:53:31.010Z,9.03
2018-04-18T00:58:32.310Z,9.97
2018-04-18T01:03:33.605Z,8.60
2018-04-18T01:08:34.898Z,10.00
2018-04-18T01:13:36.191Z,9.10
2018-04-18T01:18:37.486Z,10.10
2018-04-18T01:23:38.782Z,8.80
2018-04-18T01:28:40.089Z,10.20
2018-04-18T01:33:41.383Z,9.20
2018-04-18T01:38:42.687Z,9.60
2018-04-18T01:43:44.716Z,7.70
2018-04-18T01:48:46.008Z,8.23
2018-04-18T01:53:47.290Z,8.67
2018-04-18T01:58:48.577Z,8.70
2018-04-18T02:03:49.869Z,10.07
2018-04-18T02:08:51.182Z,9.53
2018-04-18T02:13:52.470Z,10.80
2018-04-18T02:18:53.769Z,10.20
2018-04-18T02:23:55.105Z,9.43
2018-04-18T02:28:57.149Z,10.07
2018-04-18T02:33:58.484Z,10.80
2018-04-18T02:38:59.789Z,8.50
2018-04-18T02:44:01.839Z,9.40
2018-04-18T02:49:03.197Z,10.60
2018-04-18T02:54:04.520Z,10.47
2018-04-18T02:59:05.834Z,9.77
2018-04-18T03:04:07.158Z,10.47
2018-04-18T03:09:08.449Z,10.03
2018-04-18T03:14:09.745Z,10.80
2018-04-18T03:19:11.061Z,10.53
2018-04-18T03:24:12.354Z,11.07
2018-04-18T03:29:13.667Z,11.90
2018-04-18T03:34:14.985Z,10.70
2018-04-18T03:39:17.045Z,11.37
2018-04-18T03:44:18.337Z,10.20
2018-04-18T03:49:19.646Z,9.53
2018-04-18T03:54:20.965Z,10.13
2018-04-18T03:59:22.274Z,8.87
2018-04-18T04:04:23.562Z,9.70
2018-04-18T04:09:24.897Z,9.27
2018-04-18T04:14:26.202Z,9.83
2018-04-18T04:25:13.726Z,9.90
2018-04-18T04:30:15.111Z,10.50
2018-04-18T04:35:16.513Z,9.50
2018-04-18T04:40:18.664Z,11.10
2018-04-18T04:45:20.065Z,8.70
2018-04-18T04:50:21.406Z,10.47
2018-04-18T04:55:23.464Z,9.57
2018-04-18T05:00:24.933Z,9.20
2018-04-18T05:05:26.259Z,10.97
2018-04-18T05:10:27.626Z,11.57
2018-04-18T05:15:29.547Z,9.63
2018-04-18T05:20:31.010Z,10.73
2018-04-18T05:25:32.349Z,11.23
2018-04-18T05:30:33.783Z,10.10
2018-04-18T05:35:35.137Z,10.73
2018-04-18T05:40:36.483Z,11.20
2018-04-18T05:45:37.838Z,12.30
2018-04-18T05:50:39.911Z,12.47
2018-04-18T05:55:41.226Z,10.60
2018-04-18T06:00:42.558Z,12.03
2018-04-18T06:05:43.892Z,10.93
2018-04-18T06:10:45.206Z,11.17
2018-04-18T06:15:47.229Z,12.03
2018-04-18T06:20:48.564Z,13.33
2018-04-18T06:25:49.869Z,10.80
2018-04-18T06:30:51.190Z,13.87
2018-04-18T06:35:52.591Z,12.27
2018-04-18T06:40:53.989Z,12.90
2018-04-18T06:45:55.322Z,13.03
2018-04-18T06:50:56.650Z,13.17
2018-04-18T06:55:58.216Z,12.90
2018-04-18T07:01:00.290Z,14.10
2018-04-18T07:06:01.650Z,12.80
2018-04-18T07:11:02.999Z,13.27
2018-04-18T07:16:04.318Z,14.00
2018-04-18T07:21:05.657Z,13.60
2018-04-18T07:26:06.992Z,14.17
2018-04-18T07:31:08.602Z,14.20
2018-04-18T07:36:10.006Z,13.23
2018-04-18T07:41:11.350Z,14.27
2018-04-18T07:46:12.667Z,14.63
2018-04-18T07:51:14.002Z,15.53
2018-04-18T07:56:15.338Z,14.70
2018-04-18T08:01:17.397Z,15.97
2018-04-18T08:06:18.718Z,15.00
2018-04-18T08:11:20.776Z,14.43
2018-04-18T08:16:22.121Z,14.43
2018-04-18T08:21:24.222Z,14.50
2018-04-18T08:26:26.329Z,15.80
2018-04-18T08:31:28.398Z,15.07
2018-04-18T08:36:29.722Z,16.20
2018-04-18T08:41:31.765Z,16.67
2018-04-18T08:46:33.070Z,18.63
2018-04-18T08:51:34.402Z,15.53
2018-04-18T08:56:35.730Z,17.60
2018-04-18T09:01:37.099Z,16.80
2018-04-18T09:06:39.273Z,18.00
2018-04-18T09:11:41.163Z,15.03
2018-04-18T09:16:42.496Z,15.77
2018-04-18T09:21:44.566Z,15.03
2018-04-18T09:26:45.891Z,16.67
2018-04-18T09:31:47.952Z,15.90
2018-04-18T09:36:49.274Z,16.13
2018-04-18T09:41:50.599Z,16.13
2018-04-18T09:46:51.969Z,14.63
2018-04-18T09:51:54.068Z,14.30
2018-04-18T09:56:55.391Z,14.50
2018-04-18T10:01:56.727Z,13.17
2018-04-18T10:06:58.109Z,13.10
2018-04-18T10:11:59.429Z,11.70
2018-04-18T10:17:01.502Z,7.00
2018-04-18T10:22:02.862Z,10.50
2018-04-18T10:27:04.169Z,8.97
2018-04-18T10:32:05.488Z,11.57
2018-04-18T10:37:06.849Z,12.10
2018-04-18T10:42:08.272Z,11.70
2018-04-18T10:47:09.562Z,12.60
2018-04-18T10:52:10.919Z,11.53
2018-04-18T10:57:12.235Z,13.67
2018-04-18T11:02:13.542Z,13.80
2018-04-18T11:07:15.615Z,13.60
2018-04-18T11:12:16.942Z,12.30
2018-04-18T11:17:18.991Z,12.47
2018-04-18T11:22:20.314Z,13.77
2018-04-18T11:27:21.698Z,11.50
2018-04-18T11:32:23.018Z,11.50
2018-04-18T11:37:25.162Z,10.00
2018-04-18T11:42:26.493Z,11.50
2018-04-18T11:47:27.811Z,12.20
2018-04-18T11:52:29.906Z,10.30
2018-04-18T11:57:31.983Z,11.00
2018-04-18T12:02:33.313Z,10.80
2018-04-18T12:07:35.390Z,9.77
2018-04-18T12:12:36.693Z,10.10
2018-04-18T12:17:38.011Z,8.60
2018-04-18T12:22:43.118Z,10.33
2018-04-18T12:27:44.434Z,10.00
2018-04-18T12:32:45.737Z,10.10
2018-04-18T12:37:47.066Z,10.60
2018-04-18T12:42:48.397Z,9.97
2018-04-18T12:47:49.717Z,10.60
2018-04-18T12:52:51.796Z,9.40
2018-04-18T12:57:53.103Z,9.70
2018-04-18T13:02:54.396Z,8.77
2018-04-18T13:07:56.458Z,9.50
2018-04-18T13:12:57.774Z,9.87
2018-04-18T13:17:59.116Z,9.97
2018-04-18T13:23:00.488Z,9.30
2018-04-18T13:28:01.862Z,11.10
2018-04-18T13:33:03.949Z,10.83
2018-04-18T13:38:05.314Z,10.07
2018-04-18T13:43:06.646Z,11.23
2018-04-18T13:48:07.943Z,9.73
2018-04-18T13:53:10.022Z,10.90
2018-04-18T13:58:11.349Z,9.70
2018-04-18T14:03:13.396Z,11.50
2018-04-18T14:08:14.697Z,11.43
2018-04-18T14:13:16.025Z,12.47
2018-04-18T14:18:18.090Z,12.90
2018-04-18T14:23:19.386Z,12.30
2018-04-18T14:28:20.718Z,13.97
2018-04-18T14:33:22.769Z,13.50
2018-04-18T14:38:24.086Z,12.87
2018-04-18T14:43:25.418Z,14.23
2018-04-18T14:48:26.715Z,14.90
2018-04-18T14:53:28.062Z,14.43
2018-04-18T14:58:30.127Z,13.70
2018-04-18T15:03:31.425Z,14.40
2018-04-18T15:08:32.741Z,13.83
2018-04-18T15:13:34.100Z,14.60
2018-04-18T15:18:35.402Z,14.60
2018-04-18T15:23:36.854Z,15.03
2018-04-18T15:28:38.213Z,17.27
2018-04-18T15:33:39.558Z,14.40
2018-04-18T15:38:40.890Z,15.33
2018-04-18T15:43:42.936Z,13.90
2018-04-18T15:48:44.310Z,14.47
2018-04-18T15:53:45.694Z,15.30
2018-04-18T15:58:47.017Z,13.73
2018-04-18T16:03:48.370Z,13.80
2018-04-18T16:08:50.418Z,13.73
2018-04-18T16:13:51.721Z,12.93
2018-04-18T16:18:53.047Z,13.20
2018-04-18T16:23:54.350Z,13.77
2018-04-18T16:28:56.722Z,15.07
2018-04-18T16:33:58.066Z,14.10
2018-04-18T16:38:59.425Z,12.63
2018-04-18T16:44:00.764Z,12.97
2018-04-18T16:49:02.098Z,14.63
2018-04-18T16:54:03.427Z,12.90
2018-04-18T16:59:04.749Z,13.23
2018-04-18T17:04:06.110Z,11.97
2018-04-18T17:09:07.461Z,11.83
2018-04-18T17:14:08.792Z,11.40
2018-04-18T17:19:10.109Z,14.27
2018-04-18T17:24:11.427Z,14.23
2018-04-18T17:29:12.741Z,12.50
2018-04-18T17:34:14.790Z,12.43
2018-04-18T17:39:16.102Z,12.10
2018-04-18T17:44:17.429Z,14.40
2018-04-18T17:49:19.481Z,12.73
2018-04-18T17:54:21.361Z,12.30
2018-04-18T17:59:22.663Z,12.73
2018-04-18T18:04:24.002Z,12.83
2018-04-18T18:09:26.069Z,13.00
2018-04-18T18:14:27.421Z,20.17
2018-04-18T18:19:28.746Z,14.47
2018-04-18T18:24:30.086Z,13.47
2018-04-18T18:29:32.168Z,17.20
2018-04-18T18:34:33.513Z,14.03
2018-04-18T18:39:34.809Z,15.00
2018-04-18T18:44:36.117Z,13.70
2018-04-18T18:49:37.427Z,14.80
2018-04-18T18:54:38.743Z,12.20
2018-04-18T18:59:40.046Z,12.43
2018-04-18T19:04:41.350Z,10.97
2018-04-18T19:09:42.651Z,10.73
2018-04-18T19:14:43.963Z,11.47
2018-04-18T19:19:45.267Z,10.70
2018-04-18T19:24:46.590Z,11.03
2018-04-18T19:29:47.905Z,12.80
2018-04-18T19:34:49.210Z,12.50
2018-04-18T19:39:50.510Z,12.93
2018-04-18T19:44:51.810Z,13.13
2018-04-18T19:49:53.106Z,11.17
2018-04-18T19:54:54.494Z,11.70
2018-04-18T19:59:55.785Z,11.30
2018-04-18T20:04:57.838Z,11.70
2018-04-18T20:09:59.142Z,11.20
2018-04-18T20:15:00.442Z,10.40
2018-04-18T20:20:01.755Z,10.73
2018-04-18T20:25:03.814Z,11.93
2018-04-18T20:30:05.126Z,11.93
2018-04-18T20:35:06.432Z,12.00
2018-04-18T20:40:07.729Z,12.23
2018-04-18T20:45:09.029Z,12.20
2018-04-18T20:50:11.302Z,12.73
2018-04-18T20:55:12.639Z,12.40
2018-04-18T21:00:13.962Z,13.00
2018-04-18T21:05:15.335Z,13.17
2018-04-18T21:10:17.345Z,13.67
2018-04-18T21:15:18.647Z,12.40
2018-04-18T21:20:19.937Z,12.10
2018-04-18T21:25:21.278Z,13.53
2018-04-18T21:30:23.334Z,13.80
2018-04-18T21:35:24.647Z,15.20
2018-04-18T21:40:25.938Z,18.10
2018-04-18T21:45:27.257Z,17.33
2018-04-18T21:50:28.546Z,17.00
2018-04-18T21:55:30.608Z,16.10
2018-04-18T22:00:31.968Z,16.50
2018-04-18T22:05:33.265Z,16.47
2018-04-18T22:10:34.556Z,17.53
2018-04-18T22:15:35.860Z,16.60
2018-04-18T22:20:37.154Z,18.40
2018-04-18T22:25:38.465Z,18.97
2018-04-18T22:30:39.777Z,20.70
2018-04-18T22:35:41.077Z,17.67
2018-04-18T22:40:42.374Z,18.80
2018-04-18T22:45:43.670Z,16.73
2018-04-18T22:50:44.973Z,16.60
2018-04-18T22:55:46.266Z,17.73
2018-04-18T23:00:47.566Z,16.67
2018-04-18T23:05:48.862Z,16.60
2018-04-18T23:10:50.187Z,16.53
2018-04-18T23:15:52.227Z,14.97
2018-04-18T23:20:53.528Z,17.90
2018-04-18T23:25:54.846Z,13.90
2018-04-18T23:30:56.142Z,14.87
2018-04-18T23:35:57.430Z,15.50
2018-04-18T23:40:58.754Z,15.70
2018-04-18T23:46:00.050Z,13.93
2018-04-18T23:51:01.377Z,15.63
2018-04-18T23:56:02.685Z,14.50
